sensor_id;sensor_type;location;lat;lon;timestamp;pressure;altitude;pressure_sealevel;temperature
67501;BMP180;54349;52.528;19.760;2022-10-16T00:01:44;100600.20;;;22.90
67501;BMP180;54349;52.528;19.760;2022-10-16T00:04:13;100604.80;;;22.82
67501;BMP180;54349;52.528;19.760;2022-10-16T00:06:41;100609.40;;;22.80
67501;BMP180;54349;52.528;19.760;2022-10-16T00:09:09;100610.20;;;22.80
67501;BMP180;54349;52.528;19.760;2022-10-16T00:11:39;100610.60;;;22.80
67501;BMP180;54349;52.528;19.760;2022-10-16T00:14:13;100617.20;;;22.80
67501;BMP180;54349;52.528;19.760;2022-10-16T00:16:42;100616.00;;;22.80
67501;BMP180;54349;52.528;19.760;2022-10-16T00:19:11;100617.80;;;22.80
67501;BMP180;54349;52.528;19.760;2022-10-16T00:21:40;100610.80;;;22.74
67501;BMP180;54349;52.528;19.760;2022-10-16T00:24:10;100610.60;;;22.70
67501;BMP180;54349;52.528;19.760;2022-10-16T00:26:39;100616.00;;;22.70
67501;BMP180;54349;52.528;19.760;2022-10-16T00:29:08;100617.40;;;22.70
67501;BMP180;54349;52.528;19.760;2022-10-16T00:31:37;100610.20;;;22.70
67501;BMP180;54349;52.528;19.760;2022-10-16T00:34:04;100616.40;;;22.70
67501;BMP180;54349;52.528;19.760;2022-10-16T00:36:33;100611.40;;;22.70
67501;BMP180;54349;52.528;19.760;2022-10-16T00:39:01;100615.40;;;22.66
67501;BMP180;54349;52.528;19.760;2022-10-16T00:41:31;100618.00;;;22.64
67501;BMP180;54349;52.528;19.760;2022-10-16T00:44:03;100616.00;;;22.60
67501;BMP180;54349;52.528;19.760;2022-10-16T00:46:39;100619.40;;;22.60
67501;BMP180;54349;52.528;19.760;2022-10-16T00:49:18;100619.00;;;22.60
67501;BMP180;54349;52.528;19.760;2022-10-16T00:51:51;100625.20;;;22.60
67501;BMP180;54349;52.528;19.760;2022-10-16T00:54:28;100632.40;;;22.60
67501;BMP180;54349;52.528;19.760;2022-10-16T00:57:02;100637.80;;;22.60
67501;BMP180;54349;52.528;19.760;2022-10-16T00:59:40;100639.20;;;22.60
67501;BMP180;54349;52.528;19.760;2022-10-16T01:02:15;100639.60;;;22.50
67501;BMP180;54349;52.528;19.760;2022-10-16T01:04:50;100639.60;;;22.50
67501;BMP180;54349;52.528;19.760;2022-10-16T01:08:00;100639.00;;;22.50
67501;BMP180;54349;52.528;19.760;2022-10-16T01:10:40;100643.80;;;22.50
67501;BMP180;54349;52.528;19.760;2022-10-16T01:13:35;100639.60;;;22.50
67501;BMP180;54349;52.528;19.760;2022-10-16T01:16:33;100643.40;;;22.50
67501;BMP180;54349;52.528;19.760;2022-10-16T01:19:15;100642.00;;;22.50
67501;BMP180;54349;52.528;19.760;2022-10-16T01:21:47;100640.00;;;22.46
67501;BMP180;54349;52.528;19.760;2022-10-16T01:24:40;100639.00;;;22.40
67501;BMP180;54349;52.528;19.760;2022-10-16T01:27:30;100642.00;;;22.42
67501;BMP180;54349;52.528;19.760;2022-10-16T01:30:23;100640.40;;;22.40
67501;BMP180;54349;52.528;19.760;2022-10-16T01:33:11;100639.20;;;22.40
67501;BMP180;54349;52.528;19.760;2022-10-16T01:35:48;100639.60;;;22.40
67501;BMP180;54349;52.528;19.760;2022-10-16T01:38:26;100637.40;;;22.40
67501;BMP180;54349;52.528;19.760;2022-10-16T01:41:08;100637.60;;;22.40
67501;BMP180;54349;52.528;19.760;2022-10-16T01:43:57;100635.20;;;22.40
67501;BMP180;54349;52.528;19.760;2022-10-16T01:46:28;100627.80;;;22.38
67501;BMP180;54349;52.528;19.760;2022-10-16T01:49:00;100622.20;;;22.38
67501;BMP180;54349;52.528;19.760;2022-10-16T01:51:30;100623.80;;;22.32
67501;BMP180;54349;52.528;19.760;2022-10-16T01:54:01;100631.00;;;22.30
67501;BMP180;54349;52.528;19.760;2022-10-16T01:56:31;100633.40;;;22.30
67501;BMP180;54349;52.528;19.760;2022-10-16T01:59:09;100633.80;;;22.30
67501;BMP180;54349;52.528;19.760;2022-10-16T02:01:45;100641.60;;;22.30
67501;BMP180;54349;52.528;19.760;2022-10-16T02:07:10;100645.60;;;22.30
67501;BMP180;54349;52.528;19.760;2022-10-16T02:09:39;100653.60;;;22.30
67501;BMP180;54349;52.528;19.760;2022-10-16T02:12:19;100652.00;;;22.30
67501;BMP180;54349;52.528;19.760;2022-10-16T02:14:50;100652.80;;;22.30
67501;BMP180;54349;52.528;19.760;2022-10-16T02:17:18;100649.00;;;22.30
67501;BMP180;54349;52.528;19.760;2022-10-16T02:19:51;100648.60;;;22.30
67501;BMP180;54349;52.528;19.760;2022-10-16T02:22:39;100651.60;;;22.26
67501;BMP180;54349;52.528;19.760;2022-10-16T02:27:54;100660.00;;;22.22
67501;BMP180;54349;52.528;19.760;2022-10-16T02:30:39;100667.40;;;22.20
67501;BMP180;54349;52.528;19.760;2022-10-16T02:33:12;100664.80;;;22.20
67501;BMP180;54349;52.528;19.760;2022-10-16T02:35:46;100660.60;;;22.20
67501;BMP180;54349;52.528;19.760;2022-10-16T02:38:17;100664.80;;;22.20
67501;BMP180;54349;52.528;19.760;2022-10-16T02:40:46;100669.60;;;22.20
67501;BMP180;54349;52.528;19.760;2022-10-16T02:43:14;100665.40;;;22.20
67501;BMP180;54349;52.528;19.760;2022-10-16T02:45:42;100664.80;;;22.20
67501;BMP180;54349;52.528;19.760;2022-10-16T02:48:11;100666.20;;;22.20
67501;BMP180;54349;52.528;19.760;2022-10-16T02:50:38;100668.00;;;22.20
67501;BMP180;54349;52.528;19.760;2022-10-16T02:53:06;100668.20;;;22.14
67501;BMP180;54349;52.528;19.760;2022-10-16T02:55:35;100666.40;;;22.12
67501;BMP180;54349;52.528;19.760;2022-10-16T02:58:03;100658.60;;;22.10
67501;BMP180;54349;52.528;19.760;2022-10-16T03:00:31;100662.60;;;22.10
67501;BMP180;54349;52.528;19.760;2022-10-16T03:02:59;100669.20;;;22.10
67501;BMP180;54349;52.528;19.760;2022-10-16T03:05:26;100663.60;;;22.10
67501;BMP180;54349;52.528;19.760;2022-10-16T03:07:55;100664.40;;;22.10
67501;BMP180;54349;52.528;19.760;2022-10-16T03:10:23;100664.40;;;22.10
67501;BMP180;54349;52.528;19.760;2022-10-16T03:12:51;100661.60;;;22.10
67501;BMP180;54349;52.528;19.760;2022-10-16T03:15:19;100657.20;;;22.10
67501;BMP180;54349;52.528;19.760;2022-10-16T03:17:47;100656.60;;;22.10
67501;BMP180;54349;52.528;19.760;2022-10-16T03:20:15;100658.80;;;22.10
67501;BMP180;54349;52.528;19.760;2022-10-16T03:22:44;100662.20;;;22.08
67501;BMP180;54349;52.528;19.760;2022-10-16T03:25:12;100656.00;;;22.02
67501;BMP180;54349;52.528;19.760;2022-10-16T03:27:39;100663.20;;;22.00
67501;BMP180;54349;52.528;19.760;2022-10-16T03:30:09;100661.40;;;22.00
67501;BMP180;54349;52.528;19.760;2022-10-16T03:32:37;100664.00;;;22.00
67501;BMP180;54349;52.528;19.760;2022-10-16T03:35:05;100664.60;;;22.00
67501;BMP180;54349;52.528;19.760;2022-10-16T03:37:34;100671.20;;;22.00
67501;BMP180;54349;52.528;19.760;2022-10-16T03:40:03;100669.60;;;22.00
67501;BMP180;54349;52.528;19.760;2022-10-16T03:42:32;100666.00;;;22.00
67501;BMP180;54349;52.528;19.760;2022-10-16T03:45:00;100671.60;;;22.00
67501;BMP180;54349;52.528;19.760;2022-10-16T03:47:28;100675.00;;;22.00
67501;BMP180;54349;52.528;19.760;2022-10-16T03:49:56;100674.00;;;22.00
67501;BMP180;54349;52.528;19.760;2022-10-16T03:52:24;100685.40;;;22.00
67501;BMP180;54349;52.528;19.760;2022-10-16T03:54:52;100681.60;;;21.98
67501;BMP180;54349;52.528;19.760;2022-10-16T03:57:20;100679.40;;;21.98
67501;BMP180;54349;52.528;19.760;2022-10-16T03:59:48;100685.20;;;21.92
67501;BMP180;54349;52.528;19.760;2022-10-16T04:02:16;100687.60;;;21.90
67501;BMP180;54349;52.528;19.760;2022-10-16T04:04:44;100691.00;;;21.90
67501;BMP180;54349;52.528;19.760;2022-10-16T04:07:12;100686.40;;;21.90
67501;BMP180;54349;52.528;19.760;2022-10-16T04:09:40;100690.20;;;21.90
67501;BMP180;54349;52.528;19.760;2022-10-16T04:12:08;100688.00;;;21.90
67501;BMP180;54349;52.528;19.760;2022-10-16T04:14:36;100687.40;;;21.90
67501;BMP180;54349;52.528;19.760;2022-10-16T04:17:04;100686.00;;;21.90
67501;BMP180;54349;52.528;19.760;2022-10-16T04:19:32;100691.00;;;21.90
67501;BMP180;54349;52.528;19.760;2022-10-16T04:22:00;100702.40;;;21.90
67501;BMP180;54349;52.528;19.760;2022-10-16T04:24:28;100702.40;;;21.90
67501;BMP180;54349;52.528;19.760;2022-10-16T04:26:56;100700.00;;;21.90
67501;BMP180;54349;52.528;19.760;2022-10-16T04:29:24;100707.20;;;21.88
67501;BMP180;54349;52.528;19.760;2022-10-16T04:31:52;100710.40;;;21.86
67501;BMP180;54349;52.528;19.760;2022-10-16T04:34:20;100704.00;;;21.82
67501;BMP180;54349;52.528;19.760;2022-10-16T04:36:49;100703.60;;;21.82
67501;BMP180;54349;52.528;19.760;2022-10-16T04:39:17;100705.00;;;21.80
67501;BMP180;54349;52.528;19.760;2022-10-16T04:41:45;100697.00;;;21.80
67501;BMP180;54349;52.528;19.760;2022-10-16T04:44:13;100701.20;;;21.80
67501;BMP180;54349;52.528;19.760;2022-10-16T04:46:41;100701.20;;;21.80
67501;BMP180;54349;52.528;19.760;2022-10-16T04:49:09;100701.40;;;21.80
67501;BMP180;54349;52.528;19.760;2022-10-16T04:51:37;100703.60;;;21.82
67501;BMP180;54349;52.528;19.760;2022-10-16T04:54:05;100708.00;;;21.90
67501;BMP180;54349;52.528;19.760;2022-10-16T04:56:33;100709.80;;;21.92
67501;BMP180;54349;52.528;19.760;2022-10-16T04:59:07;100716.20;;;22.00
67501;BMP180;54349;52.528;19.760;2022-10-16T05:01:35;100714.60;;;22.00
67501;BMP180;54349;52.528;19.760;2022-10-16T05:04:03;100713.20;;;22.10
67501;BMP180;54349;52.528;19.760;2022-10-16T05:06:32;100707.20;;;22.10
67501;BMP180;54349;52.528;19.760;2022-10-16T05:09:00;100707.80;;;22.12
67501;BMP180;54349;52.528;19.760;2022-10-16T05:11:28;100710.80;;;22.20
67501;BMP180;54349;52.528;19.760;2022-10-16T05:13:56;100715.60;;;22.20
67501;BMP180;54349;52.528;19.760;2022-10-16T05:16:24;100721.00;;;22.22
67501;BMP180;54349;52.528;19.760;2022-10-16T05:18:53;100721.00;;;22.30
67501;BMP180;54349;52.528;19.760;2022-10-16T05:21:37;100719.40;;;22.30
67501;BMP180;54349;52.528;19.760;2022-10-16T05:24:04;100716.00;;;22.30
67501;BMP180;54349;52.528;19.760;2022-10-16T05:26:32;100716.00;;;22.30
67501;BMP180;54349;52.528;19.760;2022-10-16T05:29:01;100713.00;;;22.36
67501;BMP180;54349;52.528;19.760;2022-10-16T05:31:29;100716.80;;;22.40
67501;BMP180;54349;52.528;19.760;2022-10-16T05:34:00;100729.60;;;22.40
67501;BMP180;54349;52.528;19.760;2022-10-16T05:36:29;100737.40;;;22.40
67501;BMP180;54349;52.528;19.760;2022-10-16T05:38:56;100745.80;;;22.40
67501;BMP180;54349;52.528;19.760;2022-10-16T05:41:25;100751.60;;;22.48
67501;BMP180;54349;52.528;19.760;2022-10-16T05:43:54;100745.40;;;22.50
67501;BMP180;54349;52.528;19.760;2022-10-16T05:46:22;100738.60;;;22.50
67501;BMP180;54349;52.528;19.760;2022-10-16T05:48:52;100737.20;;;22.50
67501;BMP180;54349;52.528;19.760;2022-10-16T05:51:21;100737.80;;;22.50
67501;BMP180;54349;52.528;19.760;2022-10-16T05:53:49;100737.40;;;22.50
67501;BMP180;54349;52.528;19.760;2022-10-16T05:56:17;100732.20;;;22.50
67501;BMP180;54349;52.528;19.760;2022-10-16T05:58:45;100733.80;;;22.50
67501;BMP180;54349;52.528;19.760;2022-10-16T06:01:18;100739.00;;;22.50
67501;BMP180;54349;52.528;19.760;2022-10-16T06:03:47;100747.00;;;22.50
67501;BMP180;54349;52.528;19.760;2022-10-16T06:06:18;100752.20;;;22.54
67501;BMP180;54349;52.528;19.760;2022-10-16T06:08:49;100758.40;;;22.54
67501;BMP180;54349;52.528;19.760;2022-10-16T06:11:26;100753.40;;;22.54
67501;BMP180;54349;52.528;19.760;2022-10-16T06:13:59;100757.40;;;22.54
67501;BMP180;54349;52.528;19.760;2022-10-16T06:16:29;100760.00;;;22.50
67501;BMP180;54349;52.528;19.760;2022-10-16T06:18:57;100766.20;;;22.50
67501;BMP180;54349;52.528;19.760;2022-10-16T06:21:28;100776.00;;;22.50
67501;BMP180;54349;52.528;19.760;2022-10-16T06:23:58;100777.00;;;22.50
67501;BMP180;54349;52.528;19.760;2022-10-16T06:26:29;100771.40;;;22.50
67501;BMP180;54349;52.528;19.760;2022-10-16T06:28:59;100765.00;;;22.50
67501;BMP180;54349;52.528;19.760;2022-10-16T06:31:28;100771.60;;;22.50
67501;BMP180;54349;52.528;19.760;2022-10-16T06:34:00;100778.00;;;22.50
67501;BMP180;54349;52.528;19.760;2022-10-16T06:36:28;100789.60;;;22.50
67501;BMP180;54349;52.528;19.760;2022-10-16T06:38:56;100790.00;;;22.50
67501;BMP180;54349;52.528;19.760;2022-10-16T06:41:24;100791.00;;;22.50
67501;BMP180;54349;52.528;19.760;2022-10-16T06:43:52;100788.80;;;22.50
67501;BMP180;54349;52.528;19.760;2022-10-16T06:46:23;100792.40;;;22.50
67501;BMP180;54349;52.528;19.760;2022-10-16T06:48:53;100795.20;;;22.50
67501;BMP180;54349;52.528;19.760;2022-10-16T06:51:24;100796.00;;;22.50
67501;BMP180;54349;52.528;19.760;2022-10-16T06:53:55;100798.40;;;22.50
67501;BMP180;54349;52.528;19.760;2022-10-16T06:56:33;100802.00;;;22.50
67501;BMP180;54349;52.528;19.760;2022-10-16T06:59:02;100804.00;;;22.50
67501;BMP180;54349;52.528;19.760;2022-10-16T07:01:31;100809.20;;;22.50
67501;BMP180;54349;52.528;19.760;2022-10-16T07:04:01;100809.80;;;22.50
67501;BMP180;54349;52.528;19.760;2022-10-16T07:06:33;100806.40;;;22.50
67501;BMP180;54349;52.528;19.760;2022-10-16T07:09:06;100810.40;;;22.50
67501;BMP180;54349;52.528;19.760;2022-10-16T07:11:36;100812.40;;;22.50
67501;BMP180;54349;52.528;19.760;2022-10-16T07:14:16;100818.20;;;22.50
67501;BMP180;54349;52.528;19.760;2022-10-16T07:16:46;100819.60;;;22.50
67501;BMP180;54349;52.528;19.760;2022-10-16T07:19:15;100817.40;;;22.50
67501;BMP180;54349;52.528;19.760;2022-10-16T07:21:45;100820.20;;;22.50
67501;BMP180;54349;52.528;19.760;2022-10-16T07:24:16;100821.20;;;22.50
67501;BMP180;54349;52.528;19.760;2022-10-16T07:26:45;100821.60;;;22.50
67501;BMP180;54349;52.528;19.760;2022-10-16T07:29:23;100821.40;;;22.50
67501;BMP180;54349;52.528;19.760;2022-10-16T07:31:51;100825.80;;;22.50
67501;BMP180;54349;52.528;19.760;2022-10-16T07:34:20;100820.20;;;22.50
67501;BMP180;54349;52.528;19.760;2022-10-16T07:36:52;100822.80;;;22.50
67501;BMP180;54349;52.528;19.760;2022-10-16T07:39:22;100827.80;;;22.52
67501;BMP180;54349;52.528;19.760;2022-10-16T07:41:50;100830.20;;;22.50
67501;BMP180;54349;52.528;19.760;2022-10-16T07:44:19;100826.60;;;22.56
67501;BMP180;54349;52.528;19.760;2022-10-16T07:46:47;100824.00;;;22.60
67501;BMP180;54349;52.528;19.760;2022-10-16T07:49:15;100824.00;;;22.60
67501;BMP180;54349;52.528;19.760;2022-10-16T07:51:43;100826.60;;;22.60
67501;BMP180;54349;52.528;19.760;2022-10-16T07:54:11;100827.80;;;22.60
67501;BMP180;54349;52.528;19.760;2022-10-16T07:56:39;100825.00;;;22.60
67501;BMP180;54349;52.528;19.760;2022-10-16T07:59:11;100838.60;;;22.60
67501;BMP180;54349;52.528;19.760;2022-10-16T08:01:39;100837.40;;;22.60
67501;BMP180;54349;52.528;19.760;2022-10-16T08:04:09;100850.80;;;22.60
67501;BMP180;54349;52.528;19.760;2022-10-16T08:06:39;100853.20;;;22.60
67501;BMP180;54349;52.528;19.760;2022-10-16T08:09:08;100838.60;;;22.60
67501;BMP180;54349;52.528;19.760;2022-10-16T08:11:36;100834.80;;;22.60
67501;BMP180;54349;52.528;19.760;2022-10-16T08:14:05;100836.60;;;22.60
67501;BMP180;54349;52.528;19.760;2022-10-16T08:16:35;100846.20;;;22.60
67501;BMP180;54349;52.528;19.760;2022-10-16T08:19:03;100851.60;;;22.60
67501;BMP180;54349;52.528;19.760;2022-10-16T08:21:31;100853.60;;;22.62
67501;BMP180;54349;52.528;19.760;2022-10-16T08:23:59;100859.00;;;22.62
67501;BMP180;54349;52.528;19.760;2022-10-16T08:26:28;100857.80;;;22.68
67501;BMP180;54349;52.528;19.760;2022-10-16T08:28:56;100854.60;;;22.68
67501;BMP180;54349;52.528;19.760;2022-10-16T08:31:24;100859.80;;;22.68
67501;BMP180;54349;52.528;19.760;2022-10-16T08:33:54;100864.20;;;22.68
67501;BMP180;54349;52.528;19.760;2022-10-16T08:36:22;100859.00;;;22.70
67501;BMP180;54349;52.528;19.760;2022-10-16T08:38:50;100858.20;;;22.70
67501;BMP180;54349;52.528;19.760;2022-10-16T08:49:30;100847.40;;;22.70
67501;BMP180;54349;52.528;19.760;2022-10-16T08:51:59;100849.20;;;22.70
67501;BMP180;54349;52.528;19.760;2022-10-16T08:54:33;100846.00;;;22.70
67501;BMP180;54349;52.528;19.760;2022-10-16T08:57:13;100847.20;;;22.70
67501;BMP180;54349;52.528;19.760;2022-10-16T08:59:49;100850.80;;;22.70
67501;BMP180;54349;52.528;19.760;2022-10-16T09:02:51;100850.40;;;22.70
67501;BMP180;54349;52.528;19.760;2022-10-16T09:08:12;100846.60;;;22.70
67501;BMP180;54349;52.528;19.760;2022-10-16T09:11:11;100853.60;;;22.70
67501;BMP180;54349;52.528;19.760;2022-10-16T09:16:51;100856.00;;;22.70
67501;BMP180;54349;52.528;19.760;2022-10-16T09:19:32;100852.20;;;22.70
67501;BMP180;54349;52.528;19.760;2022-10-16T09:22:15;100856.20;;;22.70
67501;BMP180;54349;52.528;19.760;2022-10-16T09:24:43;100862.60;;;22.70
67501;BMP180;54349;52.528;19.760;2022-10-16T09:27:14;100861.60;;;22.70
67501;BMP180;54349;52.528;19.760;2022-10-16T09:29:42;100863.40;;;22.70
67501;BMP180;54349;52.528;19.760;2022-10-16T09:32:15;100862.00;;;22.68
67501;BMP180;54349;52.528;19.760;2022-10-16T09:34:55;100861.40;;;22.70
67501;BMP180;54349;52.528;19.760;2022-10-16T09:37:26;100858.40;;;22.70
67501;BMP180;54349;52.528;19.760;2022-10-16T09:39:55;100856.80;;;22.66
67501;BMP180;54349;52.528;19.760;2022-10-16T09:42:31;100852.60;;;22.70
67501;BMP180;54349;52.528;19.760;2022-10-16T09:45:00;100853.00;;;22.68
67501;BMP180;54349;52.528;19.760;2022-10-16T09:47:31;100849.40;;;22.62
67501;BMP180;54349;52.528;19.760;2022-10-16T09:50:20;100851.80;;;22.62
67501;BMP180;54349;52.528;19.760;2022-10-16T09:52:49;100853.40;;;22.64
67501;BMP180;54349;52.528;19.760;2022-10-16T09:55:18;100859.40;;;22.60
67501;BMP180;54349;52.528;19.760;2022-10-16T09:57:51;100863.20;;;22.60
67501;BMP180;54349;52.528;19.760;2022-10-16T10:00:22;100867.60;;;22.62
67501;BMP180;54349;52.528;19.760;2022-10-16T10:02:52;100866.60;;;22.60
67501;BMP180;54349;52.528;19.760;2022-10-16T10:05:28;100868.20;;;22.60
67501;BMP180;54349;52.528;19.760;2022-10-16T10:08:02;100872.80;;;22.60
67501;BMP180;54349;52.528;19.760;2022-10-16T10:10:42;100874.80;;;22.60
67501;BMP180;54349;52.528;19.760;2022-10-16T10:13:22;100870.60;;;22.62
67501;BMP180;54349;52.528;19.760;2022-10-16T10:15:53;100870.20;;;22.70
67501;BMP180;54349;52.528;19.760;2022-10-16T10:18:22;100868.60;;;22.64
67501;BMP180;54349;52.528;19.760;2022-10-16T10:21:00;100860.00;;;22.68
67501;BMP180;54349;52.528;19.760;2022-10-16T10:23:29;100859.00;;;22.70
67501;BMP180;54349;52.528;19.760;2022-10-16T10:26:26;100855.20;;;22.70
67501;BMP180;54349;52.528;19.760;2022-10-16T10:29:14;100848.00;;;22.70
67501;BMP180;54349;52.528;19.760;2022-10-16T10:35:21;100851.00;;;22.70
67501;BMP180;54349;52.528;19.760;2022-10-16T10:46:26;100859.60;;;22.70
67501;BMP180;54349;52.528;19.760;2022-10-16T11:01:35;100862.00;;;22.70
67501;BMP180;54349;52.528;19.760;2022-10-16T11:04:39;100859.40;;;22.70
67501;BMP180;54349;52.528;19.760;2022-10-16T11:07:18;100856.40;;;22.70
67501;BMP180;54349;52.528;19.760;2022-10-16T11:09:57;100865.00;;;22.70
67501;BMP180;54349;52.528;19.760;2022-10-16T11:12:38;100864.00;;;22.70
67501;BMP180;54349;52.528;19.760;2022-10-16T11:15:32;100859.40;;;22.70
67501;BMP180;54349;52.528;19.760;2022-10-16T11:18:19;100857.20;;;22.70
67501;BMP180;54349;52.528;19.760;2022-10-16T11:20:57;100856.80;;;22.70
67501;BMP180;54349;52.528;19.760;2022-10-16T11:23:45;100852.60;;;22.70
67501;BMP180;54349;52.528;19.760;2022-10-16T11:26:28;100862.80;;;22.70
67501;BMP180;54349;52.528;19.760;2022-10-16T11:29:01;100859.80;;;22.70
67501;BMP180;54349;52.528;19.760;2022-10-16T11:31:44;100856.80;;;22.70
67501;BMP180;54349;52.528;19.760;2022-10-16T11:34:41;100862.40;;;22.70
67501;BMP180;54349;52.528;19.760;2022-10-16T11:37:18;100861.60;;;22.70
67501;BMP180;54349;52.528;19.760;2022-10-16T11:39:50;100863.00;;;22.70
67501;BMP180;54349;52.528;19.760;2022-10-16T11:42:30;100861.60;;;22.70
67501;BMP180;54349;52.528;19.760;2022-10-16T11:47:40;100862.60;;;22.70
67501;BMP180;54349;52.528;19.760;2022-10-16T11:50:43;100858.20;;;22.70
67501;BMP180;54349;52.528;19.760;2022-10-16T11:55:57;100858.00;;;22.74
67501;BMP180;54349;52.528;19.760;2022-10-16T12:01:44;100866.00;;;22.80
67501;BMP180;54349;52.528;19.760;2022-10-16T12:04:19;100872.00;;;22.74
67501;BMP180;54349;52.528;19.760;2022-10-16T12:07:08;100876.00;;;22.74
67501;BMP180;54349;52.528;19.760;2022-10-16T12:09:40;100877.00;;;22.74
67501;BMP180;54349;52.528;19.760;2022-10-16T12:15:28;100874.80;;;22.80
67501;BMP180;54349;52.528;19.760;2022-10-16T12:18:23;100875.40;;;22.80
67501;BMP180;54349;52.528;19.760;2022-10-16T12:20:57;100879.40;;;22.80
67501;BMP180;54349;52.528;19.760;2022-10-16T12:23:28;100885.40;;;22.80
67501;BMP180;54349;52.528;19.760;2022-10-16T12:26:00;100887.60;;;22.80
67501;BMP180;54349;52.528;19.760;2022-10-16T12:28:32;100890.40;;;22.80
67501;BMP180;54349;52.528;19.760;2022-10-16T12:31:07;100881.20;;;22.80
67501;BMP180;54349;52.528;19.760;2022-10-16T12:33:51;100875.80;;;22.80
67501;BMP180;54349;52.528;19.760;2022-10-16T12:36:34;100879.80;;;22.80
67501;BMP180;54349;52.528;19.760;2022-10-16T12:39:03;100886.60;;;22.80
67501;BMP180;54349;52.528;19.760;2022-10-16T12:41:34;100886.80;;;22.80
67501;BMP180;54349;52.528;19.760;2022-10-16T12:44:03;100877.60;;;22.80
67501;BMP180;54349;52.528;19.760;2022-10-16T12:46:39;100878.60;;;22.80
67501;BMP180;54349;52.528;19.760;2022-10-16T12:51:56;100872.80;;;22.80
67501;BMP180;54349;52.528;19.760;2022-10-16T12:54:37;100870.80;;;22.80
67501;BMP180;54349;52.528;19.760;2022-10-16T13:04:02;100887.40;;;22.80
67501;BMP180;54349;52.528;19.760;2022-10-16T13:07:13;100888.40;;;22.80
67501;BMP180;54349;52.528;19.760;2022-10-16T13:12:57;100875.80;;;22.80
67501;BMP180;54349;52.528;19.760;2022-10-16T13:16:05;100874.60;;;22.80
67501;BMP180;54349;52.528;19.760;2022-10-16T13:22:20;100886.40;;;22.80
67501;BMP180;54349;52.528;19.760;2022-10-16T13:25:18;100891.80;;;22.80
67501;BMP180;54349;52.528;19.760;2022-10-16T13:27:56;100889.40;;;22.80
67501;BMP180;54349;52.528;19.760;2022-10-16T13:30:30;100894.80;;;22.80
67501;BMP180;54349;52.528;19.760;2022-10-16T13:33:20;100900.80;;;22.80
67501;BMP180;54349;52.528;19.760;2022-10-16T13:35:54;100902.40;;;22.80
67501;BMP180;54349;52.528;19.760;2022-10-16T13:38:26;100901.00;;;22.80
67501;BMP180;54349;52.528;19.760;2022-10-16T13:41:00;100900.40;;;22.80
67501;BMP180;54349;52.528;19.760;2022-10-16T13:43:38;100905.20;;;22.80
67501;BMP180;54349;52.528;19.760;2022-10-16T13:46:14;100905.20;;;22.80
67501;BMP180;54349;52.528;19.760;2022-10-16T13:48:44;100898.20;;;22.80
67501;BMP180;54349;52.528;19.760;2022-10-16T13:51:18;100894.80;;;22.80
67501;BMP180;54349;52.528;19.760;2022-10-16T13:53:46;100905.20;;;22.80
67501;BMP180;54349;52.528;19.760;2022-10-16T13:56:19;100909.40;;;22.80
67501;BMP180;54349;52.528;19.760;2022-10-16T13:59:04;100918.60;;;22.80
67501;BMP180;54349;52.528;19.760;2022-10-16T14:01:41;100921.20;;;22.80
67501;BMP180;54349;52.528;19.760;2022-10-16T14:04:13;100928.40;;;22.80
67501;BMP180;54349;52.528;19.760;2022-10-16T14:06:45;100935.40;;;22.80
67501;BMP180;54349;52.528;19.760;2022-10-16T14:09:34;100934.00;;;22.78
67501;BMP180;54349;52.528;19.760;2022-10-16T14:12:10;100942.00;;;22.80
67501;BMP180;54349;52.528;19.760;2022-10-16T14:14:54;100946.00;;;22.72
67501;BMP180;54349;52.528;19.760;2022-10-16T14:17:28;100944.60;;;22.74
67501;BMP180;54349;52.528;19.760;2022-10-16T14:20:05;100939.80;;;22.70
67501;BMP180;54349;52.528;19.760;2022-10-16T14:22:38;100938.80;;;22.70
67501;BMP180;54349;52.528;19.760;2022-10-16T14:28:03;100944.20;;;22.70
67501;BMP180;54349;52.528;19.760;2022-10-16T14:30:35;100940.40;;;22.70
67501;BMP180;54349;52.528;19.760;2022-10-16T14:33:18;100948.40;;;22.70
67501;BMP180;54349;52.528;19.760;2022-10-16T14:36:02;100953.80;;;22.70
67501;BMP180;54349;52.528;19.760;2022-10-16T14:38:32;100949.80;;;22.70
67501;BMP180;54349;52.528;19.760;2022-10-16T14:41:04;100951.20;;;22.70
67501;BMP180;54349;52.528;19.760;2022-10-16T14:46:36;100960.80;;;22.70
67501;BMP180;54349;52.528;19.760;2022-10-16T14:49:19;100966.00;;;22.70
67501;BMP180;54349;52.528;19.760;2022-10-16T14:51:49;100962.40;;;22.70
67501;BMP180;54349;52.528;19.760;2022-10-16T14:54:18;100972.80;;;22.70
67501;BMP180;54349;52.528;19.760;2022-10-16T14:56:53;100974.80;;;22.70
67501;BMP180;54349;52.528;19.760;2022-10-16T14:59:42;100971.20;;;22.70
67501;BMP180;54349;52.528;19.760;2022-10-16T15:04:56;100969.00;;;22.70
67501;BMP180;54349;52.528;19.760;2022-10-16T15:07:24;100966.20;;;22.60
67501;BMP180;54349;52.528;19.760;2022-10-16T15:09:53;100962.80;;;22.60
67501;BMP180;54349;52.528;19.760;2022-10-16T15:12:22;100960.80;;;22.60
67501;BMP180;54349;52.528;19.760;2022-10-16T15:14:50;100967.40;;;22.60
67501;BMP180;54349;52.528;19.760;2022-10-16T15:17:18;100968.60;;;22.60
67501;BMP180;54349;52.528;19.760;2022-10-16T15:19:48;100969.60;;;22.60
67501;BMP180;54349;52.528;19.760;2022-10-16T15:22:17;100967.80;;;22.60
67501;BMP180;54349;52.528;19.760;2022-10-16T15:24:45;100974.00;;;22.60
67501;BMP180;54349;52.528;19.760;2022-10-16T15:27:13;100971.00;;;22.60
67501;BMP180;54349;52.528;19.760;2022-10-16T15:29:41;100977.00;;;22.60
67501;BMP180;54349;52.528;19.760;2022-10-16T15:32:10;100979.20;;;22.60
67501;BMP180;54349;52.528;19.760;2022-10-16T15:34:38;100977.40;;;22.60
67501;BMP180;54349;52.528;19.760;2022-10-16T15:37:08;100977.00;;;22.60
67501;BMP180;54349;52.528;19.760;2022-10-16T15:39:36;100980.20;;;22.60